sensor_id;sensor_type;location;lat;lon;timestamp;P1;durP1;ratioP1;P2;durP2;ratioP2
59239;SDS011;45010;53.640;10.578;2023-04-03T00:00:18;1.27;;;0.75;;
59239;SDS011;45010;53.640;10.578;2023-04-03T00:03:19;0.80;;;0.45;;
59239;SDS011;45010;53.640;10.578;2023-04-03T00:06:19;0.88;;;0.60;;
59239;SDS011;45010;53.640;10.578;2023-04-03T00:09:20;1.85;;;0.80;;
59239;SDS011;45010;53.640;10.578;2023-04-03T00:12:20;1.63;;;0.63;;
59239;SDS011;45010;53.640;10.578;2023-04-03T00:15:20;1.20;;;0.65;;
59239;SDS011;45010;53.640;10.578;2023-04-03T00:18:21;1.33;;;0.68;;
59239;SDS011;45010;53.640;10.578;2023-04-03T00:21:22;1.48;;;0.88;;
59239;SDS011;45010;53.640;10.578;2023-04-03T00:24:22;1.10;;;0.60;;
59239;SDS011;45010;53.640;10.578;2023-04-03T00:27:22;2.00;;;0.50;;
59239;SDS011;45010;53.640;10.578;2023-04-03T00:30:23;0.85;;;0.70;;
59239;SDS011;45010;53.640;10.578;2023-04-03T00:33:23;0.70;;;0.52;;
59239;SDS011;45010;53.640;10.578;2023-04-03T00:36:24;0.95;;;0.52;;
59239;SDS011;45010;53.640;10.578;2023-04-03T00:39:25;0.82;;;0.60;;
59239;SDS011;45010;53.640;10.578;2023-04-03T00:42:25;0.55;;;0.55;;
59239;SDS011;45010;53.640;10.578;2023-04-03T00:45:30;1.05;;;0.50;;
59239;SDS011;45010;53.640;10.578;2023-04-03T00:48:43;1.30;;;0.70;;
59239;SDS011;45010;53.640;10.578;2023-04-03T00:51:45;2.03;;;0.45;;
59239;SDS011;45010;53.640;10.578;2023-04-03T00:54:47;1.02;;;0.60;;
59239;SDS011;45010;53.640;10.578;2023-04-03T00:57:48;0.52;;;0.52;;
59239;SDS011;45010;53.640;10.578;2023-04-03T01:00:50;0.77;;;0.50;;
59239;SDS011;45010;53.640;10.578;2023-04-03T01:03:58;0.60;;;0.43;;
59239;SDS011;45010;53.640;10.578;2023-04-03T01:07:19;1.35;;;0.60;;
59239;SDS011;45010;53.640;10.578;2023-04-03T01:10:23;0.90;;;0.50;;
59239;SDS011;45010;53.640;10.578;2023-04-03T01:13:26;0.80;;;0.50;;
59239;SDS011;45010;53.640;10.578;2023-04-03T01:16:29;0.70;;;0.50;;
59239;SDS011;45010;53.640;10.578;2023-04-03T01:19:31;0.70;;;0.43;;
59239;SDS011;45010;53.640;10.578;2023-04-03T01:22:44;0.60;;;0.60;;
59239;SDS011;45010;53.640;10.578;2023-04-03T01:25:56;0.40;;;0.40;;
59239;SDS011;45010;53.640;10.578;2023-04-03T01:28:58;1.08;;;0.60;;
59239;SDS011;45010;53.640;10.578;2023-04-03T01:32:00;1.23;;;0.60;;
59239;SDS011;45010;53.640;10.578;2023-04-03T01:35:01;0.77;;;0.52;;
59239;SDS011;45010;53.640;10.578;2023-04-03T01:38:02;0.68;;;0.50;;
59239;SDS011;45010;53.640;10.578;2023-04-03T01:41:02;0.50;;;0.40;;
59239;SDS011;45010;53.640;10.578;2023-04-03T01:44:02;0.85;;;0.40;;
59239;SDS011;45010;53.640;10.578;2023-04-03T01:47:05;0.57;;;0.50;;
59239;SDS011;45010;53.640;10.578;2023-04-03T01:50:06;0.63;;;0.50;;
59239;SDS011;45010;53.640;10.578;2023-04-03T01:53:07;0.77;;;0.50;;
59239;SDS011;45010;53.640;10.578;2023-04-03T01:56:07;0.60;;;0.50;;
59239;SDS011;45010;53.640;10.578;2023-04-03T01:59:08;0.90;;;0.50;;
59239;SDS011;45010;53.640;10.578;2023-04-03T02:02:09;1.42;;;0.60;;
59239;SDS011;45010;53.640;10.578;2023-04-03T02:05:09;0.85;;;0.68;;
59239;SDS011;45010;53.640;10.578;2023-04-03T02:08:10;1.15;;;0.45;;
59239;SDS011;45010;53.640;10.578;2023-04-03T02:11:11;1.10;;;0.50;;
59239;SDS011;45010;53.640;10.578;2023-04-03T02:14:11;0.63;;;0.50;;
59239;SDS011;45010;53.640;10.578;2023-04-03T02:17:12;0.80;;;0.57;;
59239;SDS011;45010;53.640;10.578;2023-04-03T02:20:12;1.45;;;0.40;;
59239;SDS011;45010;53.640;10.578;2023-04-03T02:23:13;0.77;;;0.50;;
59239;SDS011;45010;53.640;10.578;2023-04-03T02:26:13;0.40;;;0.30;;
59239;SDS011;45010;53.640;10.578;2023-04-03T02:29:15;0.82;;;0.50;;
59239;SDS011;45010;53.640;10.578;2023-04-03T02:32:15;0.88;;;0.50;;
59239;SDS011;45010;53.640;10.578;2023-04-03T02:35:16;0.80;;;0.40;;
59239;SDS011;45010;53.640;10.578;2023-04-03T02:38:16;0.57;;;0.32;;
59239;SDS011;45010;53.640;10.578;2023-04-03T02:41:16;0.90;;;0.40;;
59239;SDS011;45010;53.640;10.578;2023-04-03T02:44:17;0.55;;;0.40;;
59239;SDS011;45010;53.640;10.578;2023-04-03T02:47:18;0.63;;;0.47;;
59239;SDS011;45010;53.640;10.578;2023-04-03T02:50:19;0.90;;;0.57;;
59239;SDS011;45010;53.640;10.578;2023-04-03T02:53:19;0.70;;;0.40;;
59239;SDS011;45010;53.640;10.578;2023-04-03T02:56:20;0.50;;;0.43;;
59239;SDS011;45010;53.640;10.578;2023-04-03T02:59:21;0.60;;;0.43;;
59239;SDS011;45010;53.640;10.578;2023-04-03T03:02:21;0.85;;;0.40;;
59239;SDS011;45010;53.640;10.578;2023-04-03T03:05:21;1.05;;;0.43;;
59239;SDS011;45010;53.640;10.578;2023-04-03T03:08:22;0.95;;;0.52;;
59239;SDS011;45010;53.640;10.578;2023-04-03T03:11:22;1.00;;;0.50;;
59239;SDS011;45010;53.640;10.578;2023-04-03T03:14:22;0.50;;;0.40;;
59239;SDS011;45010;53.640;10.578;2023-04-03T03:17:23;0.35;;;0.30;;
59239;SDS011;45010;53.640;10.578;2023-04-03T03:20:23;0.60;;;0.43;;
59239;SDS011;45010;53.640;10.578;2023-04-03T03:23:24;0.70;;;0.47;;
59239;SDS011;45010;53.640;10.578;2023-04-03T03:26:26;0.38;;;0.38;;
59239;SDS011;45010;53.640;10.578;2023-04-03T03:29:26;1.20;;;0.40;;
59239;SDS011;45010;53.640;10.578;2023-04-03T03:32:27;0.95;;;0.45;;
59239;SDS011;45010;53.640;10.578;2023-04-03T03:35:27;1.20;;;0.50;;
59239;SDS011;45010;53.640;10.578;2023-04-03T03:38:27;0.60;;;0.40;;
59239;SDS011;45010;53.640;10.578;2023-04-03T03:41:28;0.95;;;0.50;;
59239;SDS011;45010;53.640;10.578;2023-04-03T03:44:28;0.68;;;0.40;;
59239;SDS011;45010;53.640;10.578;2023-04-03T03:47:31;0.65;;;0.32;;
59239;SDS011;45010;53.640;10.578;2023-04-03T03:50:31;0.20;;;0.20;;
59239;SDS011;45010;53.640;10.578;2023-04-03T03:53:32;0.70;;;0.40;;
59239;SDS011;45010;53.640;10.578;2023-04-03T03:56:33;0.60;;;0.30;;
59239;SDS011;45010;53.640;10.578;2023-04-03T03:59:33;0.80;;;0.32;;
59239;SDS011;45010;53.640;10.578;2023-04-03T04:02:34;0.40;;;0.32;;
59239;SDS011;45010;53.640;10.578;2023-04-03T04:05:34;1.08;;;0.40;;
59239;SDS011;45010;53.640;10.578;2023-04-03T04:08:34;0.50;;;0.40;;
59239;SDS011;45010;53.640;10.578;2023-04-03T04:11:35;0.63;;;0.50;;
59239;SDS011;45010;53.640;10.578;2023-04-03T04:14:35;0.70;;;0.40;;
59239;SDS011;45010;53.640;10.578;2023-04-03T04:17:36;0.68;;;0.40;;
59239;SDS011;45010;53.640;10.578;2023-04-03T04:20:36;1.23;;;0.50;;
59239;SDS011;45010;53.640;10.578;2023-04-03T04:23:36;0.47;;;0.38;;
59239;SDS011;45010;53.640;10.578;2023-04-03T04:26:37;0.43;;;0.38;;
59239;SDS011;45010;53.640;10.578;2023-04-03T04:29:37;0.40;;;0.30;;
59239;SDS011;45010;53.640;10.578;2023-04-03T04:32:37;0.50;;;0.30;;
59239;SDS011;45010;53.640;10.578;2023-04-03T04:35:38;1.00;;;0.50;;
59239;SDS011;45010;53.640;10.578;2023-04-03T04:38:38;0.40;;;0.30;;
59239;SDS011;45010;53.640;10.578;2023-04-03T04:41:38;0.80;;;0.38;;
59239;SDS011;45010;53.640;10.578;2023-04-03T04:44:39;0.40;;;0.30;;
59239;SDS011;45010;53.640;10.578;2023-04-03T04:47:39;2.92;;;0.40;;
59239;SDS011;45010;53.640;10.578;2023-04-03T04:50:40;0.40;;;0.40;;
59239;SDS011;45010;53.640;10.578;2023-04-03T04:53:40;2.17;;;0.40;;
59239;SDS011;45010;53.640;10.578;2023-04-03T04:56:40;0.85;;;0.47;;
59239;SDS011;45010;53.640;10.578;2023-04-03T04:59:41;1.45;;;0.30;;
59239;SDS011;45010;53.640;10.578;2023-04-03T05:02:41;0.52;;;0.40;;
59239;SDS011;45010;53.640;10.578;2023-04-03T05:05:41;1.02;;;0.40;;
59239;SDS011;45010;53.640;10.578;2023-04-03T05:08:42;0.40;;;0.30;;
59239;SDS011;45010;53.640;10.578;2023-04-03T05:11:42;1.38;;;0.20;;
59239;SDS011;45010;53.640;10.578;2023-04-03T05:14:43;0.52;;;0.30;;
59239;SDS011;45010;53.640;10.578;2023-04-03T05:17:43;0.50;;;0.40;;
59239;SDS011;45010;53.640;10.578;2023-04-03T05:20:43;1.23;;;0.30;;
59239;SDS011;45010;53.640;10.578;2023-04-03T05:23:44;1.00;;;0.40;;
59239;SDS011;45010;53.640;10.578;2023-04-03T05:26:44;0.55;;;0.40;;
59239;SDS011;45010;53.640;10.578;2023-04-03T05:29:44;1.08;;;0.50;;
59239;SDS011;45010;53.640;10.578;2023-04-03T05:32:45;0.45;;;0.38;;
59239;SDS011;45010;53.640;10.578;2023-04-03T05:35:45;1.13;;;0.40;;
59239;SDS011;45010;53.640;10.578;2023-04-03T05:38:45;0.95;;;0.35;;
59239;SDS011;45010;53.640;10.578;2023-04-03T05:41:46;1.45;;;0.35;;
59239;SDS011;45010;53.640;10.578;2023-04-03T05:44:46;0.38;;;0.30;;
59239;SDS011;45010;53.640;10.578;2023-04-03T05:47:47;0.43;;;0.40;;
59239;SDS011;45010;53.640;10.578;2023-04-03T05:50:47;0.52;;;0.30;;
59239;SDS011;45010;53.640;10.578;2023-04-03T05:53:48;1.20;;;0.40;;
59239;SDS011;45010;53.640;10.578;2023-04-03T05:56:52;1.73;;;0.50;;
59239;SDS011;45010;53.640;10.578;2023-04-03T05:59:53;0.80;;;0.38;;
59239;SDS011;45010;53.640;10.578;2023-04-03T06:02:53;0.80;;;0.38;;
59239;SDS011;45010;53.640;10.578;2023-04-03T06:05:53;1.65;;;0.43;;
59239;SDS011;45010;53.640;10.578;2023-04-03T06:08:54;1.50;;;0.30;;
59239;SDS011;45010;53.640;10.578;2023-04-03T06:11:54;0.85;;;0.30;;
59239;SDS011;45010;53.640;10.578;2023-04-03T06:14:55;2.92;;;0.70;;
59239;SDS011;45010;53.640;10.578;2023-04-03T06:17:55;2.00;;;0.90;;
59239;SDS011;45010;53.640;10.578;2023-04-03T06:20:56;3.42;;;1.00;;
59239;SDS011;45010;53.640;10.578;2023-04-03T06:23:56;3.55;;;1.20;;
59239;SDS011;45010;53.640;10.578;2023-04-03T06:26:56;4.88;;;1.02;;
59239;SDS011;45010;53.640;10.578;2023-04-03T06:29:57;5.75;;;1.38;;
59239;SDS011;45010;53.640;10.578;2023-04-03T06:32:58;2.92;;;1.08;;
59239;SDS011;45010;53.640;10.578;2023-04-03T06:35:59;2.67;;;0.98;;
59239;SDS011;45010;53.640;10.578;2023-04-03T06:39:00;4.10;;;1.00;;
59239;SDS011;45010;53.640;10.578;2023-04-03T06:42:01;7.68;;;1.60;;
59239;SDS011;45010;53.640;10.578;2023-04-03T06:45:02;8.88;;;2.17;;
59239;SDS011;45010;53.640;10.578;2023-04-03T06:48:02;3.88;;;1.20;;
59239;SDS011;45010;53.640;10.578;2023-04-03T06:51:02;5.55;;;1.23;;
59239;SDS011;45010;53.640;10.578;2023-04-03T06:54:03;2.83;;;1.02;;
59239;SDS011;45010;53.640;10.578;2023-04-03T06:57:06;3.65;;;1.45;;
59239;SDS011;45010;53.640;10.578;2023-04-03T07:00:07;7.53;;;1.42;;
59239;SDS011;45010;53.640;10.578;2023-04-03T07:03:09;2.25;;;0.95;;
59239;SDS011;45010;53.640;10.578;2023-04-03T07:06:10;3.10;;;1.20;;
59239;SDS011;45010;53.640;10.578;2023-04-03T07:09:13;4.78;;;1.15;;
59239;SDS011;45010;53.640;10.578;2023-04-03T07:12:14;3.47;;;1.10;;
59239;SDS011;45010;53.640;10.578;2023-04-03T07:15:15;3.10;;;1.20;;
59239;SDS011;45010;53.640;10.578;2023-04-03T07:18:15;2.58;;;1.10;;
59239;SDS011;45010;53.640;10.578;2023-04-03T07:21:16;4.20;;;0.98;;
59239;SDS011;45010;53.640;10.578;2023-04-03T07:24:17;2.20;;;1.02;;
59239;SDS011;45010;53.640;10.578;2023-04-03T07:27:17;2.65;;;1.13;;
59239;SDS011;45010;53.640;10.578;2023-04-03T07:30:17;3.40;;;1.65;;
59239;SDS011;45010;53.640;10.578;2023-04-03T07:33:19;3.45;;;1.30;;
59239;SDS011;45010;53.640;10.578;2023-04-03T07:36:22;3.50;;;1.27;;
59239;SDS011;45010;53.640;10.578;2023-04-03T07:39:23;2.80;;;1.23;;
59239;SDS011;45010;53.640;10.578;2023-04-03T07:42:23;3.83;;;1.70;;
59239;SDS011;45010;53.640;10.578;2023-04-03T07:45:24;14.73;;;3.63;;
59239;SDS011;45010;53.640;10.578;2023-04-03T07:48:24;15.70;;;4.40;;
59239;SDS011;45010;53.640;10.578;2023-04-03T07:51:26;10.65;;;3.53;;
59239;SDS011;45010;53.640;10.578;2023-04-03T07:54:28;8.63;;;2.92;;
59239;SDS011;45010;53.640;10.578;2023-04-03T07:57:28;11.63;;;3.75;;
59239;SDS011;45010;53.640;10.578;2023-04-03T08:00:29;8.82;;;2.88;;
59239;SDS011;45010;53.640;10.578;2023-04-03T08:03:29;10.18;;;2.95;;
59239;SDS011;45010;53.640;10.578;2023-04-03T08:06:30;6.25;;;2.13;;
59239;SDS011;45010;53.640;10.578;2023-04-03T08:09:32;8.55;;;1.90;;
59239;SDS011;45010;53.640;10.578;2023-04-03T08:12:33;7.40;;;2.80;;
59239;SDS011;45010;53.640;10.578;2023-04-03T08:15:33;8.80;;;2.22;;
59239;SDS011;45010;53.640;10.578;2023-04-03T08:18:34;5.15;;;1.88;;
59239;SDS011;45010;53.640;10.578;2023-04-03T08:21:34;5.05;;;1.73;;
59239;SDS011;45010;53.640;10.578;2023-04-03T08:24:34;4.45;;;2.20;;
59239;SDS011;45010;53.640;10.578;2023-04-03T08:27:35;7.68;;;2.42;;
59239;SDS011;45010;53.640;10.578;2023-04-03T08:30:35;5.65;;;2.25;;
59239;SDS011;45010;53.640;10.578;2023-04-03T08:33:36;5.70;;;2.17;;
59239;SDS011;45010;53.640;10.578;2023-04-03T08:36:37;7.38;;;2.00;;
59239;SDS011;45010;53.640;10.578;2023-04-03T08:39:37;3.72;;;2.00;;
59239;SDS011;45010;53.640;10.578;2023-04-03T08:45:50;6.25;;;2.30;;
59239;SDS011;45010;53.640;10.578;2023-04-03T08:48:55;15.25;;;2.75;;
59239;SDS011;45010;53.640;10.578;2023-04-03T08:52:01;7.45;;;2.65;;
59239;SDS011;45010;53.640;10.578;2023-04-03T08:55:13;8.13;;;3.05;;
59239;SDS011;45010;53.640;10.578;2023-04-03T08:58:23;9.52;;;3.00;;
59239;SDS011;45010;53.640;10.578;2023-04-03T09:01:27;8.38;;;3.58;;
59239;SDS011;45010;53.640;10.578;2023-04-03T09:04:29;10.05;;;3.70;;
59239;SDS011;45010;53.640;10.578;2023-04-03T09:07:36;10.57;;;3.60;;
59239;SDS011;45010;53.640;10.578;2023-04-03T09:10:42;12.07;;;3.28;;
59239;SDS011;45010;53.640;10.578;2023-04-03T09:13:46;7.20;;;2.72;;
59239;SDS011;45010;53.640;10.578;2023-04-03T09:16:58;9.20;;;3.08;;
59239;SDS011;45010;53.640;10.578;2023-04-03T09:26:34;6.97;;;2.35;;
59239;SDS011;45010;53.640;10.578;2023-04-03T09:29:42;7.63;;;3.03;;
59239;SDS011;45010;53.640;10.578;2023-04-03T09:32:46;6.65;;;2.67;;
59239;SDS011;45010;53.640;10.578;2023-04-03T09:35:48;7.82;;;3.22;;
59239;SDS011;45010;53.640;10.578;2023-04-03T09:39:02;8.77;;;2.70;;
59239;SDS011;45010;53.640;10.578;2023-04-03T09:42:04;8.50;;;2.67;;
59239;SDS011;45010;53.640;10.578;2023-04-03T09:45:18;6.45;;;2.50;;
59239;SDS011;45010;53.640;10.578;2023-04-03T09:48:24;6.25;;;2.53;;
59239;SDS011;45010;53.640;10.578;2023-04-03T09:51:26;5.82;;;2.65;;
59239;SDS011;45010;53.640;10.578;2023-04-03T09:57:39;4.20;;;2.10;;
59239;SDS011;45010;53.640;10.578;2023-04-03T10:00:40;6.50;;;2.60;;
59239;SDS011;45010;53.640;10.578;2023-04-03T10:03:41;6.82;;;2.42;;
59239;SDS011;45010;53.640;10.578;2023-04-03T10:06:47;5.97;;;2.17;;
59239;SDS011;45010;53.640;10.578;2023-04-03T10:09:55;4.82;;;1.90;;
59239;SDS011;45010;53.640;10.578;2023-04-03T10:13:19;7.00;;;2.28;;
59239;SDS011;45010;53.640;10.578;2023-04-03T10:16:23;4.43;;;2.00;;
59239;SDS011;45010;53.640;10.578;2023-04-03T10:20:16;4.07;;;1.92;;
59239;SDS011;45010;53.640;10.578;2023-04-03T10:26:29;4.57;;;1.77;;
59239;SDS011;45010;53.640;10.578;2023-04-03T10:33:18;4.88;;;1.65;;
59239;SDS011;45010;53.640;10.578;2023-04-03T10:46:04;3.47;;;1.42;;
59239;SDS011;45010;53.640;10.578;2023-04-03T10:56:21;3.70;;;1.42;;
59239;SDS011;45010;53.640;10.578;2023-04-03T11:02:55;2.95;;;1.38;;
59239;SDS011;45010;53.640;10.578;2023-04-03T11:06:05;3.85;;;1.52;;
59239;SDS011;45010;53.640;10.578;2023-04-03T11:09:43;2.65;;;1.10;;
59239;SDS011;45010;53.640;10.578;2023-04-03T11:12:48;3.33;;;1.00;;
59239;SDS011;45010;53.640;10.578;2023-04-03T11:15:55;1.83;;;1.15;;
59239;SDS011;45010;53.640;10.578;2023-04-03T11:18:59;4.30;;;1.35;;
59239;SDS011;45010;53.640;10.578;2023-04-03T11:22:08;3.03;;;1.15;;
59239;SDS011;45010;53.640;10.578;2023-04-03T11:25:15;3.22;;;1.23;;
59239;SDS011;45010;53.640;10.578;2023-04-03T11:28:21;2.50;;;1.23;;
59239;SDS011;45010;53.640;10.578;2023-04-03T11:34:34;3.67;;;1.48;;
59239;SDS011;45010;53.640;10.578;2023-04-03T11:37:41;2.05;;;1.13;;
59239;SDS011;45010;53.640;10.578;2023-04-03T11:40:48;2.85;;;1.42;;
59239;SDS011;45010;53.640;10.578;2023-04-03T11:43:57;2.38;;;1.48;;
59239;SDS011;45010;53.640;10.578;2023-04-03T11:46:58;3.92;;;1.48;;
59239;SDS011;45010;53.640;10.578;2023-04-03T11:56:50;2.00;;;1.20;;
59239;SDS011;45010;53.640;10.578;2023-04-03T11:59:36;4.47;;;1.58;;
59239;SDS011;45010;53.640;10.578;2023-04-03T12:02:37;1.58;;;1.02;;
59239;SDS011;45010;53.640;10.578;2023-04-03T12:05:38;2.10;;;1.15;;
59239;SDS011;45010;53.640;10.578;2023-04-03T12:11:41;1.88;;;1.10;;
59239;SDS011;45010;53.640;10.578;2023-04-03T12:14:43;2.60;;;1.00;;
59239;SDS011;45010;53.640;10.578;2023-04-03T12:17:43;1.92;;;1.10;;
59239;SDS011;45010;53.640;10.578;2023-04-03T12:24:13;1.55;;;0.98;;
59239;SDS011;45010;53.640;10.578;2023-04-03T12:27:38;1.63;;;1.10;;
59239;SDS011;45010;53.640;10.578;2023-04-03T12:30:43;1.58;;;0.93;;
59239;SDS011;45010;53.640;10.578;2023-04-03T12:33:50;1.63;;;0.95;;
59239;SDS011;45010;53.640;10.578;2023-04-03T12:37:09;2.33;;;1.15;;
59239;SDS011;45010;53.640;10.578;2023-04-03T12:40:31;2.00;;;1.20;;
59239;SDS011;45010;53.640;10.578;2023-04-03T12:43:46;1.35;;;1.00;;
59239;SDS011;45010;53.640;10.578;2023-04-03T12:47:19;1.58;;;0.90;;
59239;SDS011;45010;53.640;10.578;2023-04-03T12:50:24;1.38;;;0.95;;
59239;SDS011;45010;53.640;10.578;2023-04-03T12:53:33;2.53;;;1.02;;
59239;SDS011;45010;53.640;10.578;2023-04-03T12:56:36;1.70;;;0.90;;
59239;SDS011;45010;53.640;10.578;2023-04-03T12:59:36;1.15;;;0.82;;
59239;SDS011;45010;53.640;10.578;2023-04-03T13:02:38;1.55;;;0.80;;
59239;SDS011;45010;53.640;10.578;2023-04-03T13:05:38;1.58;;;1.10;;
59239;SDS011;45010;53.640;10.578;2023-04-03T13:08:38;1.02;;;0.70;;
59239;SDS011;45010;53.640;10.578;2023-04-03T13:11:53;2.30;;;1.17;;
59239;SDS011;45010;53.640;10.578;2023-04-03T13:16:04;1.90;;;0.90;;
59239;SDS011;45010;53.640;10.578;2023-04-03T13:18:40;2.60;;;0.90;;
59239;SDS011;45010;53.640;10.578;2023-04-03T13:21:42;1.67;;;0.80;;
59239;SDS011;45010;53.640;10.578;2023-04-03T13:24:44;2.28;;;0.70;;
59239;SDS011;45010;53.640;10.578;2023-04-03T13:27:46;2.90;;;0.85;;
59239;SDS011;45010;53.640;10.578;2023-04-03T13:30:59;3.65;;;0.80;;
59239;SDS011;45010;53.640;10.578;2023-04-03T13:34:06;1.58;;;0.73;;
59239;SDS011;45010;53.640;10.578;2023-04-03T13:37:19;2.05;;;0.90;;
59239;SDS011;45010;53.640;10.578;2023-04-03T13:40:20;2.70;;;0.85;;
59239;SDS011;45010;53.640;10.578;2023-04-03T13:43:31;2.58;;;1.02;;
59239;SDS011;45010;53.640;10.578;2023-04-03T13:46:36;2.78;;;0.82;;
59239;SDS011;45010;53.640;10.578;2023-04-03T13:49:43;4.20;;;2.03;;
59239;SDS011;45010;53.640;10.578;2023-04-03T13:52:47;2.97;;;1.75;;
59239;SDS011;45010;53.640;10.578;2023-04-03T13:55:54;4.38;;;2.40;;
59239;SDS011;45010;53.640;10.578;2023-04-03T13:59:23;4.10;;;2.10;;
59239;SDS011;45010;53.640;10.578;2023-04-03T14:02:30;2.88;;;2.25;;
59239;SDS011;45010;53.640;10.578;2023-04-03T14:05:32;4.05;;;2.00;;
59239;SDS011;45010;53.640;10.578;2023-04-03T14:08:32;4.03;;;1.60;;
59239;SDS011;45010;53.640;10.578;2023-04-03T14:11:33;4.63;;;1.98;;
59239;SDS011;45010;53.640;10.578;2023-04-03T14:14:35;4.25;;;2.20;;
59239;SDS011;45010;53.640;10.578;2023-04-03T14:17:36;2.72;;;1.88;;
59239;SDS011;45010;53.640;10.578;2023-04-03T14:20:36;4.50;;;1.60;;
59239;SDS011;45010;53.640;10.578;2023-04-03T14:23:37;2.63;;;1.65;;
59239;SDS011;45010;53.640;10.578;2023-04-03T14:26:37;4.35;;;1.73;;
59239;SDS011;45010;53.640;10.578;2023-04-03T14:29:38;3.80;;;1.80;;
59239;SDS011;45010;53.640;10.578;2023-04-03T14:32:38;2.92;;;1.60;;
59239;SDS011;45010;53.640;10.578;2023-04-03T14:35:38;2.25;;;1.50;;
59239;SDS011;45010;53.640;10.578;2023-04-03T14:38:39;2.60;;;1.70;;
59239;SDS011;45010;53.640;10.578;2023-04-03T14:41:41;2.38;;;1.00;;
59239;SDS011;45010;53.640;10.578;2023-04-03T14:44:42;2.58;;;1.50;;
59239;SDS011;45010;53.640;10.578;2023-04-03T14:47:46;2.00;;;1.00;;
59239;SDS011;45010;53.640;10.578;2023-04-03T14:50:49;2.50;;;1.33;;
59239;SDS011;45010;53.640;10.578;2023-04-03T14:53:50;2.05;;;1.65;;
59239;SDS011;45010;53.640;10.578;2023-04-03T14:56:51;2.65;;;1.48;;
59239;SDS011;45010;53.640;10.578;2023-04-03T14:59:52;2.33;;;1.10;;
59239;SDS011;45010;53.640;10.578;2023-04-03T15:02:52;2.72;;;1.30;;
59239;SDS011;45010;53.640;10.578;2023-04-03T15:05:53;6.05;;;1.95;;
59239;SDS011;45010;53.640;10.578;2023-04-03T15:08:53;10.80;;;3.10;;
59239;SDS011;45010;53.640;10.578;2023-04-03T15:11:54;8.65;;;2.97;;
59239;SDS011;45010;53.640;10.578;2023-04-03T15:14:54;8.13;;;2.95;;
59239;SDS011;45010;53.640;10.578;2023-04-03T15:17:55;10.98;;;3.83;;
59239;SDS011;45010;53.640;10.578;2023-04-03T15:20:59;9.80;;;3.63;;
59239;SDS011;45010;53.640;10.578;2023-04-03T15:24:00;11.48;;;4.57;;
59239;SDS011;45010;53.640;10.578;2023-04-03T15:27:00;8.05;;;3.70;;
59239;SDS011;45010;53.640;10.578;2023-04-03T15:30:02;8.52;;;3.58;;
59239;SDS011;45010;53.640;10.578;2023-04-03T15:33:03;12.02;;;3.97;;
59239;SDS011;45010;53.640;10.578;2023-04-03T15:36:04;8.70;;;3.92;;
59239;SDS011;45010;53.640;10.578;2023-04-03T15:39:05;9.85;;;4.05;;
59239;SDS011;45010;53.640;10.578;2023-04-03T15:42:05;9.07;;;3.67;;
59239;SDS011;45010;53.640;10.578;2023-04-03T15:45:06;8.35;;;3.60;;
59239;SDS011;45010;53.640;10.578;2023-04-03T15:48:07;9.32;;;3.95;;
59239;SDS011;45010;53.640;10.578;2023-04-03T15:51:08;9.70;;;4.38;;
59239;SDS011;45010;53.640;10.578;2023-04-03T15:54:08;8.80;;;3.65;;
59239;SDS011;45010;53.640;10.578;2023-04-03T15:57:09;11.02;;;3.40;;
59239;SDS011;45010;53.640;10.578;2023-04-03T16:00:09;9.23;;;3.58;;
59239;SDS011;45010;53.640;10.578;2023-04-03T16:03:20;7.55;;;2.90;;
59239;SDS011;45010;53.640;10.578;2023-04-03T16:06:21;9.43;;;2.85;;
59239;SDS011;45010;53.640;10.578;2023-04-03T16:09:24;4.95;;;2.83;;
59239;SDS011;45010;53.640;10.578;2023-04-03T16:12:25;8.23;;;3.10;;
59239;SDS011;45010;53.640;10.578;2023-04-03T16:15:25;10.43;;;3.63;;
59239;SDS011;45010;53.640;10.578;2023-04-03T16:18:27;7.13;;;2.92;;
59239;SDS011;45010;53.640;10.578;2023-04-03T16:21:27;6.45;;;2.00;;
59239;SDS011;45010;53.640;10.578;2023-04-03T16:24:28;6.05;;;2.85;;
59239;SDS011;45010;53.640;10.578;2023-04-03T16:27:29;5.68;;;2.92;;
59239;SDS011;45010;53.640;10.578;2023-04-03T16:30:30;8.57;;;3.25;;
59239;SDS011;45010;53.640;10.578;2023-04-03T16:33:31;9.75;;;3.47;;
59239;SDS011;45010;53.640;10.578;2023-04-03T16:36:31;34.90;;;15.52;;
59239;SDS011;45010;53.640;10.578;2023-04-03T16:39:32;56.35;;;26.70;;
59239;SDS011;45010;53.640;10.578;2023-04-03T16:42:32;70.10;;;36.95;;
59239;SDS011;45010;53.640;10.578;2023-04-03T16:45:33;66.93;;;33.25;;
59239;SDS011;45010;53.640;10.578;2023-04-03T16:48:33;71.28;;;36.83;;
59239;SDS011;45010;53.640;10.578;2023-04-03T16:51:34;71.65;;;37.55;;
59239;SDS011;45010;53.640;10.578;2023-04-03T16:54:34;68.72;;;36.17;;
59239;SDS011;45010;53.640;10.578;2023-04-03T16:57:35;71.13;;;37.67;;
59239;SDS011;45010;53.640;10.578;2023-04-03T17:00:35;74.65;;;36.95;;
59239;SDS011;45010;53.640;10.578;2023-04-03T17:03:36;67.25;;;37.08;;
59239;SDS011;45010;53.640;10.578;2023-04-03T17:06:36;71.95;;;36.88;;
59239;SDS011;45010;53.640;10.578;2023-04-03T17:09:37;71.00;;;37.13;;
59239;SDS011;45010;53.640;10.578;2023-04-03T17:12:37;64.95;;;36.60;;
59239;SDS011;45010;53.640;10.578;2023-04-03T17:15:38;65.93;;;35.63;;
59239;SDS011;45010;53.640;10.578;2023-04-03T17:18:38;61.72;;;34.38;;
59239;SDS011;45010;53.640;10.578;2023-04-03T17:21:40;68.65;;;35.55;;
59239;SDS011;45010;53.640;10.578;2023-04-03T17:24:40;63.75;;;35.00;;
59239;SDS011;45010;53.640;10.578;2023-04-03T17:27:40;59.22;;;33.28;;
59239;SDS011;45010;53.640;10.578;2023-04-03T17:30:41;57.20;;;32.17;;
59239;SDS011;45010;53.640;10.578;2023-04-03T17:33:41;63.58;;;32.47;;
59239;SDS011;45010;53.640;10.578;2023-04-03T17:36:42;51.33;;;30.10;;
59239;SDS011;45010;53.640;10.578;2023-04-03T17:39:42;55.75;;;31.98;;
59239;SDS011;45010;53.640;10.578;2023-04-03T17:42:43;52.60;;;29.98;;
59239;SDS011;45010;53.640;10.578;2023-04-03T17:45:43;55.90;;;28.88;;
59239;SDS011;45010;53.640;10.578;2023-04-03T17:48:44;49.05;;;27.98;;
59239;SDS011;45010;53.640;10.578;2023-04-03T17:51:44;56.15;;;29.10;;
59239;SDS011;45010;53.640;10.578;2023-04-03T17:54:45;46.03;;;27.55;;
59239;SDS011;45010;53.640;10.578;2023-04-03T17:57:45;46.53;;;24.63;;
59239;SDS011;45010;53.640;10.578;2023-04-03T18:00:45;48.53;;;25.45;;
59239;SDS011;45010;53.640;10.578;2023-04-03T18:03:46;44.75;;;25.63;;
59239;SDS011;45010;53.640;10.578;2023-04-03T18:06:48;44.38;;;22.75;;
59239;SDS011;45010;53.640;10.578;2023-04-03T18:09:52;43.88;;;23.30;;
59239;SDS011;45010;53.640;10.578;2023-04-03T18:12:55;40.92;;;22.45;;
59239;SDS011;45010;53.640;10.578;2023-04-03T18:15:56;46.70;;;23.00;;
59239;SDS011;45010;53.640;10.578;2023-04-03T18:18:56;40.15;;;22.67;;
59239;SDS011;45010;53.640;10.578;2023-04-03T18:21:58;35.22;;;20.63;;
59239;SDS011;45010;53.640;10.578;2023-04-03T18:25:02;37.65;;;20.75;;
59239;SDS011;45010;53.640;10.578;2023-04-03T18:28:03;36.13;;;18.95;;
59239;SDS011;45010;53.640;10.578;2023-04-03T18:31:06;36.15;;;18.75;;
59239;SDS011;45010;53.640;10.578;2023-04-03T18:34:09;36.10;;;18.73;;
59239;SDS011;45010;53.640;10.578;2023-04-03T18:37:10;30.48;;;17.58;;
59239;SDS011;45010;53.640;10.578;2023-04-03T18:40:11;32.28;;;17.02;;
59239;SDS011;45010;53.640;10.578;2023-04-03T18:43:12;33.05;;;16.60;;
59239;SDS011;45010;53.640;10.578;2023-04-03T18:46:13;26.50;;;13.90;;
59239;SDS011;45010;53.640;10.578;2023-04-03T18:49:14;28.85;;;14.70;;
59239;SDS011;45010;53.640;10.578;2023-04-03T18:52:15;27.20;;;14.85;;
59239;SDS011;45010;53.640;10.578;2023-04-03T18:55:16;27.50;;;14.82;;